Flight Track Log - Related Links

Times and Time Zones

All times are in EDT time to prevent confusion due to time zone crossing. See the CTL18 flight status page for this flight to view local times or setup timezone preferences in your user account.

Time Position Orientation Groundspeed Altitude Reporting Facility
EDT Latitude Longitude Course Direction KTS MPH feet Rate Location/Type
Tue 19:40:00 43.3619 -84.0057 160° South  Level Estimated
Tue 19:41:00 43.3366 -83.9838 148° Southeast  Level FlightAware Approximate
Tue 19:42:00 43.3080 -83.9718 160° South  Level Estimated
Tue 19:43:00 43.2807 -83.9553 156° South  Level FlightAware Approximate
Tue 19:44:00 43.2533 -83.9388 156° South  Level FlightAware Approximate
Tue 19:45:00 43.2247 -83.9271 163° South  Level Estimated
Tue 19:46:00 43.1965 -83.9134 161° South  Level FlightAware Approximate
Tue 19:47:00 43.1683 -83.8997 161° South  Level FlightAware Approximate
Tue 19:48:00 43.1401 -83.8861 161° South  Level FlightAware Approximate
Tue 19:49:00 43.1115 -83.8746 160° South  Level Estimated
Tue 19:50:00 43.0835 -83.8603 160° South  Level FlightAware Approximate
Tue 19:50:36 42.8814 -83.7539 161° South 179 206 5,000  Level Cleveland Center
Tue 19:51:00 43.0555 -83.8461 160° South  Level FlightAware Approximate
Tue 19:51:43 42.8278 -83.7342 165° South 177 204 5,000  Level Cleveland Center
Tue 19:52:00 43.0275 -83.8318 160° South  Level FlightAware Approximate
Tue 19:52:44 42.7783 -83.7147 164° South 177 204 5,000  Level Cleveland Center
Tue 19:53:00 42.9995 -83.8176 160° South  Level FlightAware Approximate
Tue 19:53:51 42.7222 -83.7006 169° South 178 205 5,000  Level Cleveland Center
Tue 19:54:00 42.9715 -83.8033 160° South  Level FlightAware Approximate
Tue 19:54:52 42.6769 -83.6814 163° South 176 203 5,000  Level Cleveland Center
Tue 19:55:00 42.9435 -83.7891 160° South  Level FlightAware Approximate
Tue 19:55:52 42.6294 -83.6678 168° South 178 205 4,800  Level Cleveland Center
Tue 19:56:53 42.5756 -83.6511 167° South 190 219 4,400 -443 Descending Cleveland Center
Tue 19:57:54 42.5239 -83.6372 169° South 187 215 3,900 -244 Descending Cleveland Center
Tue 19:58:56 42.4744 -83.6150 162° South 173 199 3,900 -47 Level Cleveland Center
Tue 20:00:02 42.4250 -83.5958 164° South 183 211 3,800 -141 Descending Cleveland Center
Tue 20:01:04 42.3775 -83.5767 163° South 183 211 3,600 -279 Descending Cleveland Center
Tue 20:02:11 42.3264 -83.5378 151° Southeast 183 211 3,200 -331 Descending Cleveland Center
Tue 20:03:11 42.2964 -83.4914 131° Southeast 165 190 2,900 -730 Descending Cleveland Center
Tue 20:04:06 42.2625 -83.5039 195° South 123 142 1,800 -1,200 Descending Cleveland Center
Tue 20:06:00 42.2333 -83.5167 160° South  Level FlightAware Approximate
Tue 20:13:00 42.2393 -83.5310 160° South  Level Estimated
Tue 20:14:00 42.2393 -83.5310 160° South  Level Estimated

Login

Don't have an account? Register now (free) for customized features, flight alerts, and more!